Dukedom, TN (38226)

12:13 CST le 28 janvier 2015 (GMT -0600)
KTNDUKED2 | Change Station
CLOSE
Current Station
Stations météorologiques personnelles
Location: Dukedom, TN
Altitude: 486 ft
Stations météo à proximité

Alt. 486 ft 36.49 °N, 88.72 °W | Updated 29 minutes ago

Ciel dégagé
Ciel dégagé
44.1 ° F
Paraît 44 ° F
N
2.0
Vent Variable Vent de SE
Gusts 9.0 mph

Aujourd'hui
Haut(e) -- | Bas -- ° F
--% Risque de précip.
Hier
Haut(e) -- | Bas -- ° F
Precip. -- pouce
6:59 AM 5:16 PM
Lune gibbeuse croissante, 66% visible
Pression 30.26 pouce
Visibilité 10.0 Miles terrestres
Nuages Ciel dégagé
Refroidissement éolien 44 ° F
Point de rosée 34 ° F
Humidité 69%
Précipitations 0.00 pouce
Profondeur de la couche neigeuse Non disponible.
UV 15.7 sur 12
Pollen .20 sur 12
Qualité de l'air Non disponible.
Flu Activity Non disponible.
METAR KUCY 281755Z AUTO 15006KT 10SM CLR 06/M01 A3026 RMK

More Conditions Fewer Conditions

Pression 30.26 pouce
Visibilité 10.0 Miles terrestres
Nuages Ciel dégagé
Refroidissement éolien 44 ° F
Point de rosée 34 ° F
Humidité 69%
Précipitations 0.00 pouce
Profondeur de la couche neigeuse Non disponible.
UV 15.7 sur 12
Pollen .20 sur 12
Qualité de l'air Non disponible.
Flu Activity Non disponible.
METAR KUCY 281755Z AUTO 15006KT 10SM CLR 06/M01 A3026 RMK

More Conditions Fewer Conditions

10-Day Weather Forecast

Almanac

Astronomie

Jan. 28, 2015 Lever Coucher
Temps réel
Crépuscule civil
Crépuscule nautique
Crépuscule astronomique
Lune
Durée de lumière visible
Longueur du jour
Tomorrow will be .
, % of the Moon is Illuminated

Extrêmes aujourd'hui

State Highs State Lows

Community

WunderPhotos

Upload Photos

1,791,237 Photos téléchargées !

WunderBlogs® & News

Nearby

Qualité de l'air

  Qualité de l'air Indice de la qualité de l'air Polluant
Not available.

Épaisseur de neige

Station Depth Altitude

Activité sismique

Ville Distance Mag. Time & Date
Minimum magnitude displayed is 2.5.

Températures des eaux côtières

Lieu Température

Stations météo à proximité